Time;durP1;ratioP1;P1;durP2;ratioP2;P2;SDS_P1;SDS_P2;PMS_P1;PMS_P2;Temp;Humidity;BMP_temperature;BMP_pressure;BME280_temperature;BME280_humidity;BME280_pressure;Samples;Min_cycle;Max_cycle;Signal;HPM_P1;HPM_P2
2022/11/29 00:00:33;;;;;;;21.98;15.90;;;7.80;99.90;;;;;;4991899;28;20557;-49
2022/11/29 00:03:00;;;;;;;21.40;16.45;;;7.80;99.90;;;;;;4991292;28;20052;-46
2022/11/29 00:05:26;;;;;;;20.52;16.50;;;7.80;99.90;;;;;;5010730;28;20421;-51
2022/11/29 00:07:51;;;;;;;21.45;16.30;;;7.80;99.90;;;;;;4996110;28;20026;-47
2022/11/29 00:10:17;;;;;;;22.77;16.17;;;7.80;99.90;;;;;;4995508;28;20117;-49
2022/11/29 00:12:45;;;;;;;21.23;16.27;;;7.70;99.90;;;;;;4994705;28;20065;-46
2022/11/29 00:15:10;;;;;;;20.73;16.63;;;7.70;99.90;;;;;;4996489;28;20023;-52
2022/11/29 00:17:36;;;;;;;24.33;15.40;;;7.80;99.90;;;;;;4995789;28;20028;-45
2022/11/29 00:20:01;;;;;;;19.50;14.88;;;7.70;99.90;;;;;;4995417;28;20026;-50
2022/11/29 00:22:28;;;;;;;22.50;16.30;;;7.80;99.90;;;;;;4995016;28;20422;-48
2022/11/29 00:24:53;;;;;;;24.48;16.80;;;7.80;99.90;;;;;;4996091;28;20394;-45
2022/11/29 00:27:19;;;;;;;22.33;16.92;;;7.80;99.90;;;;;;4995574;28;20122;-48
2022/11/29 00:29:44;;;;;;;21.92;16.67;;;7.70;99.90;;;;;;4994531;28;20045;-47
2022/11/29 00:32:10;;;;;;;26.63;16.98;;;7.80;99.90;;;;;;4994550;28;20399;-49
2022/11/29 00:34:36;;;;;;;28.05;18.23;;;7.80;99.90;;;;;;4995472;28;20023;-46
2022/11/29 00:37:01;;;;;;;30.88;18.67;;;7.80;99.90;;;;;;4995473;28;20112;-45
2022/11/29 00:39:27;;;;;;;23.58;17.80;;;7.80;99.90;;;;;;4995449;28;20023;-49
2022/11/29 00:41:52;;;;;;;24.60;17.50;;;7.70;99.90;;;;;;4994784;28;20022;-46
2022/11/29 00:44:18;;;;;;;23.70;16.30;;;7.80;99.90;;;;;;4994868;28;20034;-43
2022/11/29 00:46:43;;;;;;;27.88;16.98;;;7.70;99.90;;;;;;4995000;28;20402;-48
2022/11/29 00:49:09;;;;;;;22.75;18.10;;;7.70;99.90;;;;;;5013734;23;20093;-55
2022/11/29 00:51:35;;;;;;;20.85;17.65;;;7.70;99.90;;;;;;4995745;28;20506;-58
2022/11/29 00:54:00;;;;;;;24.35;17.98;;;7.70;99.90;;;;;;4994804;28;20065;-57
2022/11/29 00:56:26;;;;;;;23.00;15.95;;;7.70;99.90;;;;;;4995074;28;20027;-53
2022/11/29 00:58:51;;;;;;;21.52;16.40;;;7.80;99.90;;;;;;4993272;28;20508;-56
2022/11/29 01:01:17;;;;;;;21.42;15.85;;;7.80;99.90;;;;;;4994908;28;20026;-55
2022/11/29 01:03:43;;;;;;;27.58;17.17;;;7.80;99.90;;;;;;4994192;28;20030;-56
2022/11/29 01:06:13;;;;;;;25.35;16.75;;;7.80;99.90;;;;;;4994857;28;20034;-55
2022/11/29 01:08:39;;;;;;;25.42;17.52;;;7.80;99.90;;;;;;4994978;28;20425;-51
2022/11/29 01:11:06;;;;;;;22.02;17.40;;;7.80;99.90;;;;;;4995036;28;20026;-54
2022/11/29 01:13:33;;;;;;;20.50;16.23;;;7.80;99.90;;;;;;4994085;28;20044;-53
2022/11/29 01:15:59;;;;;;;22.25;17.38;;;7.80;99.90;;;;;;4993556;28;20022;-53
2022/11/29 01:18:24;;;;;;;20.80;17.77;;;7.80;99.90;;;;;;4994722;28;20037;-55
2022/11/29 01:21:02;;;;;;;21.83;16.88;;;7.70;99.90;;;;;;4994679;28;20438;-52
2022/11/29 01:23:28;;;;;;;25.00;17.70;;;7.80;99.90;;;;;;4994065;28;20022;-54
2022/11/29 01:26:02;;;;;;;27.40;17.63;;;7.80;99.90;;;;;;4994661;28;20029;-53
2022/11/29 01:28:28;;;;;;;23.75;18.42;;;7.70;99.90;;;;;;4994551;28;20062;-55
2022/11/29 01:30:54;;;;;;;24.27;17.40;;;7.70;99.90;;;;;;5009439;28;20023;-51
2022/11/29 01:33:20;;;;;;;26.95;18.35;;;7.70;99.90;;;;;;4993475;28;20026;-55
2022/11/29 01:35:51;;;;;;;24.98;18.65;;;7.70;99.90;;;;;;4994668;28;20085;-51
2022/11/29 01:38:17;;;;;;;21.58;16.55;;;7.70;99.90;;;;;;4994297;28;20105;-55
2022/11/29 01:40:43;;;;;;;24.92;16.77;;;7.70;99.90;;;;;;4994322;28;20023;-54
2022/11/29 01:43:15;;;;;;;22.80;17.02;;;7.70;99.90;;;;;;4993691;28;20424;-55
2022/11/29 01:45:42;;;;;;;23.15;17.48;;;7.70;99.90;;;;;;4994262;28;20441;-56
2022/11/29 01:48:09;;;;;;;23.67;17.73;;;7.70;99.90;;;;;;4993919;28;20034;-54
2022/11/29 01:50:37;;;;;;;23.15;16.83;;;7.80;99.90;;;;;;4993926;28;20134;-54
2022/11/29 01:53:03;;;;;;;22.58;16.45;;;7.80;99.90;;;;;;4993326;28;20034;-49
2022/11/29 01:55:29;;;;;;;23.70;17.75;;;7.80;99.90;;;;;;4994075;28;20101;-54
2022/11/29 01:57:55;;;;;;;24.20;17.42;;;7.80;99.90;;;;;;4992267;28;20430;-53
2022/11/29 02:00:20;;;;;;;26.33;17.50;;;7.70;99.90;;;;;;4993836;28;20102;-54
2022/11/29 02:02:49;;;;;;;25.33;17.85;;;7.80;99.90;;;;;;4993120;28;20431;-52
2022/11/29 02:05:17;;;;;;;28.48;19.35;;;7.70;99.90;;;;;;4993991;28;20081;-52
2022/11/29 02:07:47;;;;;;;27.70;17.98;;;7.70;99.90;;;;;;4993681;28;20473;-54
2022/11/29 02:10:14;;;;;;;23.90;18.05;;;7.70;99.90;;;;;;5008603;28;20406;-54
2022/11/29 02:12:55;;;;;;;25.25;17.50;;;7.70;99.90;;;;;;4992776;28;20085;-51
2022/11/29 02:15:44;;;;;;;27.90;20.52;;;7.70;99.90;;;;;;4993666;28;20030;-49
2022/11/29 02:18:15;;;;;;;24.83;19.08;;;7.80;99.90;;;;;;4993513;28;20390;-54
2022/11/29 02:21:00;;;;;;;24.75;18.95;;;7.70;99.90;;;;;;4993446;28;20040;-49
2022/11/29 02:23:56;;;;;;;30.30;19.00;;;7.70;99.90;;;;;;4992971;28;20026;-54
2022/11/29 02:26:57;;;;;;;24.63;17.02;;;7.60;99.90;;;;;;4993016;28;20034;-59
2022/11/29 02:29:29;;;;;;;26.77;19.08;;;7.60;99.90;;;;;;4993326;28;20050;-55
2022/11/29 02:32:13;;;;;;;28.10;20.23;;;7.70;99.90;;;;;;4992964;28;20462;-54
2022/11/29 02:35:02;;;;;;;24.63;18.55;;;7.70;99.90;;;;;;4993408;28;20383;-55
2022/11/29 02:37:42;;;;;;;23.92;18.63;;;7.70;99.90;;;;;;4993041;28;20030;-56
2022/11/29 02:40:45;;;;;;;27.85;19.95;;;7.60;99.90;;;;;;4991854;28;20435;-56
2022/11/29 02:43:35;;;;;;;25.50;18.25;;;7.60;99.90;;;;;;4992330;28;20050;-53
2022/11/29 02:46:30;;;;;;;25.38;18.80;;;7.60;99.90;;;;;;4993134;28;20025;-54
2022/11/29 02:49:25;;;;;;;25.95;18.10;;;7.60;99.90;;;;;;4992809;28;20097;-55
2022/11/29 02:52:47;;;;;;;26.40;18.60;;;7.60;99.90;;;;;;4992684;28;20033;-55
2022/11/29 02:55:27;;;;;;;23.23;18.20;;;7.60;99.90;;;;;;4913814;29;20040;-53
2022/11/29 02:57:58;;;;;;;23.50;17.42;;;7.60;99.90;;;;;;4912113;29;20051;-52
2022/11/29 03:00:24;;;;;;;25.35;18.10;;;7.60;99.90;;;;;;4970972;28;20050;-54
2022/11/29 03:02:50;;;;;;;27.30;17.83;;;7.60;99.90;;;;;;4992065;28;20026;-56
2022/11/29 03:05:34;;;;;;;26.25;19.00;;;7.60;99.90;;;;;;4992669;28;20487;-56
2022/11/29 03:08:15;;;;;;;29.50;19.75;;;7.60;99.90;;;;;;4992479;28;20509;-55
2022/11/29 03:11:09;;;;;;;27.83;19.92;;;7.70;99.90;;;;;;4992611;28;20065;-52
2022/11/29 03:14:13;;;;;;;30.02;19.50;;;7.70;99.90;;;;;;4991566;28;20071;-51
2022/11/29 03:17:10;;;;;;;30.27;20.05;;;7.70;99.90;;;;;;4980260;28;20030;-57
2022/11/29 03:19:59;;;;;;;29.35;20.23;;;7.70;99.90;;;;;;4992466;28;20069;-52
2022/11/29 03:22:39;;;;;;;27.38;19.20;;;7.60;99.90;;;;;;4992099;28;20026;-58
2022/11/29 03:25:27;;;;;;;26.48;18.75;;;7.70;99.90;;;;;;4992526;28;20022;-53
2022/11/29 03:28:01;;;;;;;28.75;20.42;;;7.60;99.90;;;;;;4992365;28;20533;-55
2022/11/29 03:30:29;;;;;;;28.13;18.95;;;7.70;99.90;;;;;;4991038;28;20026;-54
2022/11/29 03:32:57;;;;;;;24.15;18.55;;;7.60;99.90;;;;;;4991306;28;20037;-54
2022/11/29 03:35:39;;;;;;;26.30;18.95;;;7.60;99.90;;;;;;4992060;28;20029;-57
2022/11/29 03:38:14;;;;;;;25.27;19.40;;;7.70;99.90;;;;;;4991764;28;20026;-54
2022/11/29 03:41:05;;;;;;;29.35;18.98;;;7.60;99.90;;;;;;4992755;28;20403;-56
2022/11/29 03:44:06;;;;;;;33.58;19.98;;;7.70;99.90;;;;;;4991902;28;20101;-59
2022/11/29 03:47:03;;;;;;;26.92;19.73;;;7.60;99.90;;;;;;4991239;28;20026;-52
2022/11/29 03:49:37;;;;;;;28.55;20.02;;;7.60;99.90;;;;;;4991331;28;20403;-51
2022/11/29 03:52:38;;;;;;;35.50;21.83;;;7.60;99.90;;;;;;4991324;28;20033;-54
2022/11/29 03:55:31;;;;;;;29.13;20.50;;;7.60;99.90;;;;;;4992146;28;20531;-52
2022/11/29 03:58:28;;;;;;;29.55;20.65;;;7.70;99.90;;;;;;4990965;28;20023;-55
2022/11/29 04:00:56;;;;;;;29.40;20.33;;;7.60;99.90;;;;;;5006987;28;20094;-56
2022/11/29 04:03:41;;;;;;;29.60;20.25;;;7.60;99.90;;;;;;4991139;28;20455;-51
2022/11/29 04:06:21;;;;;;;23.55;18.67;;;7.60;99.90;;;;;;4991704;28;20026;-54
2022/11/29 04:09:27;;;;;;;28.77;19.98;;;7.60;99.90;;;;;;4990565;28;20077;-55
2022/11/29 04:12:07;;;;;;;26.87;19.93;;;7.60;99.90;;;;;;4991258;28;20121;-53
2022/11/29 04:14:44;;;;;;;27.48;19.35;;;7.60;99.90;;;;;;4991632;28;20278;-57
2022/11/29 04:17:24;;;;;;;26.90;20.02;;;7.60;99.90;;;;;;4991935;28;20023;-53
2022/11/29 04:19:55;;;;;;;26.83;20.20;;;7.60;99.90;;;;;;4991740;28;20046;-50
2022/11/29 04:22:30;;;;;;;27.30;19.02;;;7.60;99.90;;;;;;4989821;28;20018;-58
2022/11/29 04:24:58;;;;;;;28.58;18.95;;;7.60;99.90;;;;;;4992171;28;20023;-53
2022/11/29 04:27:47;;;;;;;27.95;19.13;;;7.60;99.90;;;;;;4992032;28;20027;-54
2022/11/29 04:30:15;;;;;;;28.30;19.10;;;7.60;99.90;;;;;;4991727;28;20053;-50
2022/11/29 04:33:09;;;;;;;31.13;21.15;;;7.60;99.90;;;;;;4990866;28;20061;-51
2022/11/29 04:35:53;;;;;;;26.80;19.63;;;7.60;99.90;;;;;;4992087;28;20026;-57
2022/11/29 04:38:55;;;;;;;29.25;20.70;;;7.60;99.90;;;;;;4990284;28;20461;-55
2022/11/29 04:41:33;;;;;;;24.60;18.67;;;7.70;99.90;;;;;;4991714;28;20051;-56
2022/11/29 04:44:30;;;;;;;31.60;19.90;;;7.60;99.90;;;;;;5005845;28;20026;-53
2022/11/29 04:47:19;;;;;;;28.45;19.90;;;7.60;99.90;;;;;;4991571;28;20501;-52
2022/11/29 04:50:02;;;;;;;25.27;20.73;;;7.70;99.90;;;;;;4992199;28;20045;-54
2022/11/29 04:52:57;;;;;;;28.92;21.35;;;7.60;99.90;;;;;;4994455;28;20022;-56
2022/11/29 04:55:45;;;;;;;26.98;20.30;;;7.60;99.90;;;;;;4995006;28;20490;-57
2022/11/29 04:58:23;;;;;;;26.80;20.30;;;7.60;99.90;;;;;;4993265;28;20034;-57
2022/11/29 05:01:06;;;;;;;25.25;19.38;;;7.60;99.90;;;;;;5010078;28;20026;-53
2022/11/29 05:03:41;;;;;;;27.48;18.80;;;7.60;99.90;;;;;;4994533;28;20031;-54
2022/11/29 05:06:26;;;;;;;;;;;7.60;99.90;;;;;;5010619;28;20022;-55
2022/11/29 05:09:14;;;;;;;27.67;20.08;;;7.70;99.90;;;;;;4995107;28;20313;-59
2022/11/29 05:12:02;;;;;;;26.20;19.88;;;7.70;99.90;;;;;;5010028;28;20025;-52
2022/11/29 05:14:57;;;;;;;28.65;21.05;;;7.60;99.90;;;;;;4994790;28;20029;-55
2022/11/29 05:17:35;;;;;;;31.13;20.98;;;7.70;99.90;;;;;;4994783;28;20049;-55
2022/11/29 05:20:22;;;;;;;27.25;20.13;;;7.70;99.90;;;;;;4994726;28;20022;-55
2022/11/29 05:23:11;;;;;;;28.83;19.73;;;7.70;99.90;;;;;;4994185;28;20060;-56
2022/11/29 05:25:53;;;;;;;28.38;20.88;;;7.70;99.90;;;;;;4994893;28;20032;-54
2022/11/29 05:28:48;;;;;;;34.63;23.45;;;7.70;99.90;;;;;;4994665;28;20438;-55
2022/11/29 05:31:48;;;;;;;34.15;22.55;;;7.60;99.90;;;;;;4995034;28;20541;-54
2022/11/29 05:34:32;;;;;;;31.88;22.27;;;7.60;99.90;;;;;;4994485;28;20140;-56
2022/11/29 05:37:09;;;;;;;34.78;23.02;;;7.60;99.90;;;;;;4994369;28;20030;-53
2022/11/29 05:39:56;;;;;;;30.83;21.40;;;7.60;99.90;;;;;;4994251;28;20030;-50
2022/11/29 05:42:57;;;;;;;31.40;22.23;;;7.50;99.90;;;;;;4993833;28;20449;-54
2022/11/29 05:45:36;;;;;;;30.17;20.75;;;7.50;99.90;;;;;;4994484;28;20117;-57
2022/11/29 05:48:21;;;;;;;35.92;22.70;;;7.50;99.90;;;;;;4994234;28;20394;-57
2022/11/29 05:51:01;;;;;;;31.40;21.58;;;7.50;99.90;;;;;;4993924;28;20037;-52
2022/11/29 05:53:35;;;;;;;34.85;21.27;;;7.50;99.90;;;;;;4993431;28;20100;-51
2022/11/29 05:56:17;;;;;;;38.72;24.13;;;7.50;99.90;;;;;;4994129;28;20065;-49
2022/11/29 05:58:45;;;;;;;34.00;21.63;;;7.50;99.90;;;;;;4992985;28;20026;-53
2022/11/29 06:01:44;;;;;;;40.45;22.90;;;7.50;99.90;;;;;;4993168;28;20399;-51
2022/11/29 06:04:32;;;;;;;34.33;21.90;;;7.60;99.90;;;;;;4993289;28;20026;-53
2022/11/29 06:07:12;;;;;;;33.00;21.17;;;7.60;99.90;;;;;;4993891;28;20030;-55
2022/11/29 06:09:50;;;;;;;33.33;22.65;;;7.60;99.90;;;;;;4993982;28;20057;-54
2022/11/29 06:12:19;;;;;;;34.13;20.52;;;7.50;99.90;;;;;;4993070;28;20030;-54
2022/11/29 06:15:03;;;;;;;29.60;21.10;;;7.50;99.90;;;;;;4993738;28;20117;-56
2022/11/29 06:17:38;;;;;;;29.63;21.58;;;7.50;99.90;;;;;;4994695;28;20022;-58
2022/11/29 06:20:07;;;;;;;28.93;21.37;;;7.50;99.90;;;;;;4994292;28;20482;-56
2022/11/29 06:23:07;;;;;;;33.22;22.05;;;7.50;99.90;;;;;;4993564;28;20082;-59
2022/11/29 06:25:52;;;;;;;32.08;22.98;;;7.40;99.90;;;;;;4992974;28;20518;-51
2022/11/29 06:28:21;;;;;;;26.88;20.77;;;7.30;99.90;;;;;;4994476;28;20056;-56
2022/11/29 06:31:01;;;;;;;29.00;21.17;;;7.20;99.90;;;;;;4993022;28;20077;-56
2022/11/29 06:33:36;;;;;;;31.38;21.85;;;7.20;99.90;;;;;;4992651;28;20037;-55
2022/11/29 06:36:32;;;;;;;33.13;23.08;;;7.20;99.90;;;;;;4993408;28;20523;-53
2022/11/29 06:38:58;;;;;;;35.58;22.75;;;7.10;99.90;;;;;;4993262;28;20402;-50
2022/11/29 06:41:24;;;;;;;31.20;21.88;;;7.10;99.90;;;;;;5008329;28;20029;-53
2022/11/29 06:43:50;;;;;;;28.83;22.05;;;7.10;99.90;;;;;;5007202;28;20112;-49
2022/11/29 06:46:34;;;;;;;31.65;21.50;;;7.20;99.90;;;;;;4993072;28;20505;-51
2022/11/29 06:49:27;;;;;;;29.83;22.20;;;7.20;99.90;;;;;;4992677;28;20132;-52
2022/11/29 06:52:17;;;;;;;30.27;20.30;;;7.20;99.90;;;;;;5013175;23;20046;-50
2022/11/29 06:55:06;;;;;;;30.67;21.10;;;7.30;99.90;;;;;;4991759;28;20030;-52
2022/11/29 06:57:56;;;;;;;32.28;21.30;;;7.30;99.90;;;;;;4992981;28;20026;-50
2022/11/29 07:00:29;;;;;;;31.05;21.38;;;7.40;99.90;;;;;;4992842;28;20110;-51
2022/11/29 07:03:36;;;;;;;29.40;19.88;;;7.50;99.90;;;;;;4992117;28;20065;-49
2022/11/29 07:06:26;;;;;;;26.00;18.88;;;7.50;99.90;;;;;;4992837;28;20474;-51
2022/11/29 07:08:58;;;;;;;28.98;20.48;;;7.40;99.90;;;;;;5007725;28;20483;-51
2022/11/29 07:11:24;;;;;;;29.48;19.60;;;7.50;99.90;;;;;;4992794;28;20066;-53
2022/11/29 07:13:50;;;;;;;26.33;19.40;;;7.60;99.90;;;;;;4991825;28;20449;-51
2022/11/29 07:16:27;;;;;;;28.60;20.55;;;7.60;99.90;;;;;;4992485;28;20113;-50
2022/11/29 07:19:17;;;;;;;31.92;22.02;;;7.60;99.90;;;;;;4992586;28;20022;-50
2022/11/29 07:21:54;;;;;;;27.98;20.30;;;7.60;99.90;;;;;;4992642;28;20035;-52
2022/11/29 07:24:45;;;;;;;26.42;20.25;;;7.50;99.90;;;;;;4992153;28;20033;-48
2022/11/29 07:27:26;;;;;;;27.20;21.23;;;7.60;99.90;;;;;;4992517;28;20022;-52
2022/11/29 07:30:09;;;;;;;29.52;19.95;;;7.60;99.90;;;;;;4992465;28;20022;-46
2022/11/29 07:32:54;;;;;;;31.88;21.38;;;7.60;99.90;;;;;;4991735;28;20089;-54
2022/11/29 07:35:55;;;;;;;33.70;23.00;;;7.70;99.90;;;;;;4992545;28;20026;-53
2022/11/29 07:38:49;;;;;;;30.38;21.05;;;7.70;99.90;;;;;;5007412;28;20030;-50
2022/11/29 07:41:43;;;;;;;30.10;20.48;;;7.70;99.90;;;;;;4992537;28;20074;-48
2022/11/29 07:44:39;;;;;;;30.27;21.55;;;7.70;99.90;;;;;;4991748;28;20022;-51
2022/11/29 07:47:04;;;;;;;32.60;21.27;;;7.80;99.90;;;;;;4955900;28;20046;-47
2022/11/29 07:49:30;;;;;;;29.33;19.98;;;7.80;99.90;;;;;;4992597;28;20312;-48
2022/11/29 07:51:55;;;;;;;35.63;23.13;;;7.80;99.90;;;;;;4998396;28;20045;-52
2022/11/29 07:54:22;;;;;;;31.23;22.23;;;7.80;99.90;;;;;;5012698;28;20014;-46
2022/11/29 07:56:48;;;;;;;34.92;24.83;;;7.80;99.90;;;;;;5011250;28;20027;-44
2022/11/29 07:59:14;;;;;;;35.22;23.80;;;7.80;99.90;;;;;;5009772;28;20029;-43
2022/11/29 08:01:40;;;;;;;36.88;23.70;;;7.80;99.90;;;;;;5028135;28;20014;-48
2022/11/29 08:04:08;;;;;;;41.67;25.40;;;7.80;99.90;;;;;;5010383;28;20031;-47
2022/11/29 08:06:34;;;;;;;47.10;26.50;;;7.80;99.90;;;;;;5011523;28;20041;-46
2022/11/29 08:09:01;;;;;;;43.90;25.67;;;7.80;99.90;;;;;;5027487;28;20113;-43
2022/11/29 08:11:27;;;;;;;45.13;29.23;;;7.80;99.90;;;;;;5012220;28;20030;-45
2022/11/29 08:14:00;;;;;;;55.50;29.90;;;7.90;99.90;;;;;;5009010;28;20026;-45
2022/11/29 08:16:26;;;;;;;58.50;28.98;;;7.80;99.90;;;;;;5009550;28;20022;-46
2022/11/29 08:18:52;;;;;;;72.80;30.98;;;7.80;99.90;;;;;;5010548;28;20019;-43
2022/11/29 08:21:18;;;;;;;58.80;27.90;;;7.80;99.90;;;;;;5011153;28;20081;-44
2022/11/29 08:23:45;;;;;;;59.00;29.10;;;7.80;99.90;;;;;;5025495;28;20022;-46
2022/11/29 08:26:11;;;;;;;61.53;28.85;;;7.80;99.90;;;;;;5014607;28;20465;-44
2022/11/29 08:28:36;;;;;;;59.00;28.77;;;7.70;99.90;;;;;;5011686;28;20458;-46
2022/11/29 08:31:04;;;;;;;57.20;29.63;;;7.70;99.90;;;;;;5011641;28;20081;-49
2022/11/29 08:33:30;;;;;;;53.55;30.60;;;7.70;99.90;;;;;;5010196;28;20026;-49
2022/11/29 08:36:10;;;;;;;51.30;29.88;;;7.70;99.90;;;;;;5017346;28;20028;-48
2022/11/29 08:38:36;;;;;;;49.90;28.52;;;7.70;99.90;;;;;;5002185;28;20094;-45
2022/11/29 08:41:06;;;;;;;51.17;28.50;;;7.80;99.90;;;;;;5010880;28;20085;-46
2022/11/29 08:43:33;;;;;;;54.30;28.17;;;7.80;99.90;;;;;;5026531;28;20022;-51
2022/11/29 08:45:59;;;;;;;50.90;28.20;;;7.90;99.90;;;;;;5015058;28;20034;-49
2022/11/29 08:48:25;;;;;;;49.00;27.15;;;8.00;99.90;;;;;;5014261;28;20043;-44
2022/11/29 08:50:54;;;;;;;58.58;29.60;;;8.00;99.90;;;;;;4999805;28;20035;-47
2022/11/29 08:56:05;;;;;;;45.00;26.65;;;8.00;99.90;;;;;;4989588;28;20151;-52
2022/11/29 08:58:31;;;;;;;44.25;26.50;;;8.10;99.90;;;;;;5002959;28;20495;-54
2022/11/29 09:00:57;;;;;;;46.60;27.05;;;8.10;99.90;;;;;;5011140;28;20386;-43
2022/11/29 09:06:09;;;;;;;40.42;25.98;;;8.20;99.90;;;;;;4995333;28;20062;-44
2022/11/29 09:08:35;;;;;;;40.35;24.40;;;8.30;99.90;;;;;;4990166;28;20034;-52
2022/11/29 09:11:12;;;;;;;36.00;22.85;;;8.30;99.90;;;;;;4975860;28;20027;-45
2022/11/29 09:13:38;;;;;;;37.33;23.88;;;8.40;99.90;;;;;;4990135;28;20049;-41
2022/11/29 09:16:09;;;;;;;42.38;25.27;;;8.40;99.90;;;;;;4996912;28;20101;-49
2022/11/29 09:18:37;;;;;;;35.58;22.83;;;8.50;99.90;;;;;;5016508;28;20029;-42
2022/11/29 09:21:12;;;;;;;38.58;24.77;;;8.50;99.90;;;;;;5015946;28;20030;-41
2022/11/29 09:23:40;;;;;;;37.15;23.58;;;8.50;99.90;;;;;;5014560;28;20026;-46
2022/11/29 09:26:07;;;;;;;39.22;23.92;;;8.50;99.90;;;;;;5015724;28;20038;-45
2022/11/29 09:28:34;;;;;;;44.45;23.83;;;8.50;99.90;;;;;;5012096;28;20019;-41
2022/11/29 09:31:08;;;;;;;72.97;44.75;;;8.50;99.90;;;;;;5009858;28;20037;-45
2022/11/29 09:33:34;;;;;;;55.85;34.30;;;8.60;99.90;;;;;;5026922;28;20040;-38
2022/11/29 09:36:01;;;;;;;78.25;50.42;;;8.60;99.90;;;;;;5014758;28;20023;-41
2022/11/29 09:38:26;;;;;;;37.47;24.75;;;8.70;99.90;;;;;;5013666;28;20018;-45
2022/11/29 09:41:02;;;;;;;35.42;22.70;;;8.70;99.90;;;;;;5012184;28;20083;-39
2022/11/29 09:43:39;;;;;;;35.60;23.65;;;8.70;99.90;;;;;;5011711;28;20062;-38
2022/11/29 09:46:23;;;;;;;34.90;23.80;;;8.80;99.90;;;;;;5030049;28;20031;-41
2022/11/29 09:49:10;;;;;;;33.15;21.77;;;8.70;99.90;;;;;;4995412;28;20031;-39
2022/11/29 09:51:53;;;;;;;30.25;21.63;;;8.70;99.90;;;;;;4995948;28;20089;-43
2022/11/29 09:55:06;;;;;;;37.67;21.83;;;8.80;99.90;;;;;;4995646;28;20030;-40
2022/11/29 09:57:32;;;;;;;31.88;19.73;;;8.80;99.90;;;;;;4992997;28;20123;-44
2022/11/29 10:00:13;;;;;;;29.00;19.92;;;8.90;99.90;;;;;;5013129;28;20026;-40
2022/11/29 10:02:46;;;;;;;24.35;18.75;;;8.90;99.90;;;;;;5013561;28;20033;-41
2022/11/29 10:05:30;;;;;;;25.55;19.20;;;8.80;99.90;;;;;;5016833;28;20030;-42
2022/11/29 10:08:19;;;;;;;27.20;18.83;;;8.90;99.90;;;;;;5014853;28;20030;-42
2022/11/29 10:10:52;;;;;;;25.42;18.08;;;8.90;99.90;;;;;;5013803;28;20110;-43
2022/11/29 10:13:34;;;;;;;24.25;18.02;;;8.90;99.90;;;;;;5014596;28;20030;-45
2022/11/29 10:16:13;;;;;;;26.20;18.58;;;8.90;99.90;;;;;;5013338;28;20085;-41
2022/11/29 10:18:57;;;;;;;31.92;23.65;;;8.90;99.90;;;;;;5029246;28;20026;-44
2022/11/29 10:21:29;;;;;;;32.35;20.95;;;8.90;99.90;;;;;;5012608;28;20026;-43
2022/11/29 10:23:58;;;;;;;27.45;19.67;;;8.80;99.90;;;;;;5012732;28;20046;-38
2022/11/29 10:26:24;;;;;;;26.42;19.48;;;8.70;99.90;;;;;;5013237;28;20026;-43
2022/11/29 10:28:50;;;;;;;24.48;18.67;;;8.80;99.90;;;;;;5012003;28;20054;-45
2022/11/29 10:31:25;;;;;;;24.45;17.98;;;8.80;99.90;;;;;;5009824;28;20034;-44
2022/11/29 10:33:53;;;;;;;27.30;18.83;;;8.80;99.90;;;;;;4993296;28;20019;-39
2022/11/29 10:36:22;;;;;;;22.73;17.73;;;8.90;99.90;;;;;;4992049;28;20045;-42
2022/11/29 10:38:49;;;;;;;23.73;16.38;;;8.80;99.90;;;;;;5000460;28;20049;-47
2022/11/29 10:41:20;;;;;;;21.98;15.80;;;8.80;99.90;;;;;;5001064;28;20029;-48
2022/11/29 10:43:47;;;;;;;25.13;18.20;;;8.80;99.90;;;;;;4995282;28;20054;-41
2022/11/29 10:46:29;;;;;;;41.92;27.73;;;8.80;99.90;;;;;;4984357;28;20022;-47
2022/11/29 10:48:58;;;;;;;23.67;16.75;;;8.80;99.90;;;;;;5004330;28;20034;-46
2022/11/29 10:51:24;;;;;;;24.98;17.48;;;8.80;99.90;;;;;;5014135;28;20049;-46
2022/11/29 10:53:51;;;;;;;23.35;17.02;;;8.80;99.90;;;;;;4996507;28;20475;-49
2022/11/29 10:56:28;;;;;;;21.48;16.30;;;8.80;99.90;;;;;;4998714;28;20025;-50
2022/11/29 10:59:07;;;;;;;22.35;16.50;;;8.90;99.90;;;;;;5006988;28;20031;-44
2022/11/29 11:01:42;;;;;;;27.50;17.15;;;9.00;99.90;;;;;;4990875;28;20023;-46
2022/11/29 11:04:15;;;;;;;30.45;19.70;;;9.00;99.90;;;;;;4990286;28;20027;-40
2022/11/29 11:06:42;;;;;;;29.98;19.25;;;8.90;99.90;;;;;;5003208;28;20037;-42
2022/11/29 11:09:30;;;;;;;27.17;18.63;;;9.00;99.90;;;;;;4986797;28;20054;-46
2022/11/29 11:12:05;;;;;;;22.75;18.30;;;9.00;99.90;;;;;;4989792;28;20027;-49
2022/11/29 11:14:36;;;;;;;;;;;8.90;99.90;;;;;;5007888;28;20042;-44
2022/11/29 11:17:25;;;;;;;23.98;17.55;;;8.80;99.90;;;;;;4993501;28;19909;-44
2022/11/29 11:20:07;;;;;;;25.00;17.85;;;8.80;99.90;;;;;;4993597;28;20007;-44
2022/11/29 11:22:34;;;;;;;25.05;18.25;;;8.90;99.90;;;;;;4992712;28;20007;-44
2022/11/29 11:25:07;;;;;;;27.60;18.15;;;8.90;99.90;;;;;;4993202;28;20090;-41
2022/11/29 11:27:34;;;;;;;26.02;17.13;;;8.90;99.90;;;;;;4992399;28;20011;-44
2022/11/29 11:30:01;;;;;;;24.35;18.30;;;8.90;99.90;;;;;;5003447;28;20006;-43
2022/11/29 11:32:27;;;;;;;27.83;18.70;;;8.90;99.90;;;;;;5011061;28;20042;-42
2022/11/29 11:34:59;;;;;;;24.05;17.70;;;8.90;99.90;;;;;;5012346;28;20037;-41
2022/11/29 11:37:28;;;;;;;21.80;16.67;;;8.80;99.90;;;;;;5004385;28;20023;-41
2022/11/29 11:39:56;;;;;;;29.27;18.15;;;8.90;99.90;;;;;;4990826;28;20035;-44
2022/11/29 11:42:48;;;;;;;31.65;20.02;;;8.90;99.90;;;;;;4988731;28;20022;-45
2022/11/29 11:45:14;;;;;;;29.73;20.13;;;8.90;99.90;;;;;;4986992;28;20042;-46
2022/11/29 11:47:47;;;;;;;27.83;19.88;;;8.80;99.90;;;;;;5007885;28;20010;-44
2022/11/29 11:50:15;;;;;;;26.80;19.85;;;8.80;99.90;;;;;;5009460;28;20031;-48
2022/11/29 11:53:20;;;;;;;23.23;18.38;;;8.90;99.90;;;;;;5002359;28;20033;-45
2022/11/29 11:55:58;;;;;;;33.30;19.55;;;8.90;99.90;;;;;;5006746;28;20054;-44
2022/11/29 11:58:37;;;;;;;28.75;18.80;;;9.00;99.90;;;;;;5026172;28;20053;-47
2022/11/29 12:01:12;;;;;;;28.23;18.58;;;9.00;99.90;;;;;;5001207;28;20025;-46
2022/11/29 12:04:11;;;;;;;35.03;22.10;;;9.10;99.90;;;;;;5016073;28;20305;-49
2022/11/29 12:06:50;;;;;;;31.30;18.23;;;9.10;99.90;;;;;;4999068;28;20518;-46
2022/11/29 12:09:42;;;;;;;26.63;19.02;;;9.20;99.90;;;;;;4978050;28;20034;-47
2022/11/29 12:12:24;;;;;;;28.95;17.98;;;9.20;99.90;;;;;;4954617;28;20656;-46
2022/11/29 12:15:17;;;;;;;23.58;17.67;;;9.10;99.90;;;;;;4987307;28;20090;-44
2022/11/29 12:17:55;;;;;;;25.95;18.30;;;9.20;99.90;;;;;;4982352;28;20023;-48
2022/11/29 12:20:41;;;;;;;26.90;18.80;;;9.10;99.90;;;;;;4984470;28;20034;-44
2022/11/29 12:23:13;;;;;;;26.35;18.65;;;9.10;99.90;;;;;;4995730;28;20062;-43
2022/11/29 12:25:56;;;;;;;23.73;16.88;;;9.10;99.90;;;;;;5002383;28;20106;-42
2022/11/29 12:28:29;;;;;;;22.95;17.13;;;9.10;99.90;;;;;;5010126;28;20083;-50
2022/11/29 12:31:21;;;;;;;29.38;17.45;;;9.10;99.90;;;;;;5002854;28;20057;-49
2022/11/29 12:34:01;;;;;;;30.17;19.05;;;9.20;99.90;;;;;;5000413;28;20054;-46
2022/11/29 12:36:45;;;;;;;29.77;20.33;;;9.20;99.90;;;;;;5001390;28;20053;-46
2022/11/29 12:39:37;;;;;;;27.00;17.98;;;9.30;99.90;;;;;;5003261;28;20101;-51
2022/11/29 12:42:10;;;;;;;30.67;16.45;;;9.30;99.90;;;;;;5002825;28;20111;-48
2022/11/29 12:44:43;;;;;;;22.92;16.17;;;9.30;99.90;;;;;;5003850;28;20030;-45
2022/11/29 12:47:12;;;;;;;24.13;17.50;;;9.30;99.90;;;;;;5016295;28;20038;-44
2022/11/29 12:50:06;;;;;;;21.02;16.75;;;9.30;99.90;;;;;;4999096;28;20042;-48
2022/11/29 12:52:50;;;;;;;24.27;17.73;;;9.30;99.90;;;;;;5011697;23;20046;-58
2022/11/29 12:55:23;;;;;;;24.95;16.88;;;9.30;99.90;;;;;;4991597;28;20398;-56
2022/11/29 12:58:18;;;;;;;21.15;15.50;;;9.30;99.90;;;;;;4991448;28;20033;-52
2022/11/29 13:01:30;;;;;;;28.13;17.40;;;9.30;99.90;;;;;;4990977;28;20516;-54
2022/11/29 13:04:14;;;;;;;27.42;18.27;;;9.30;99.90;;;;;;4954594;28;20521;-51
2022/11/29 13:07:16;;;;;;;26.13;18.55;;;9.30;99.90;;;;;;4970538;28;20031;-50
2022/11/29 13:10:11;;;;;;;23.55;17.75;;;9.30;99.90;;;;;;4971377;28;20034;-53
2022/11/29 13:12:48;;;;;;;29.63;18.55;;;9.30;99.90;;;;;;4974939;28;20022;-58
2022/11/29 13:15:17;;;;;;;29.75;19.65;;;9.30;99.90;;;;;;4975580;28;20027;-51
2022/11/29 13:18:03;;;;;;;28.67;18.88;;;9.30;99.90;;;;;;4971215;28;20031;-55
2022/11/29 13:20:41;;;;;;;28.63;17.48;;;9.30;99.90;;;;;;4974874;28;20380;-51
2022/11/29 13:23:15;;;;;;;30.23;18.73;;;9.30;99.90;;;;;;4986284;28;20097;-48
2022/11/29 13:25:44;;;;;;;24.63;17.65;;;9.30;99.90;;;;;;4975536;28;20031;-50
2022/11/29 13:28:24;;;;;;;27.23;17.38;;;9.30;99.90;;;;;;4974404;28;20113;-51
2022/11/29 13:30:50;;;;;;;27.38;18.38;;;9.20;99.90;;;;;;4974051;28;20114;-50
2022/11/29 13:33:29;;;;;;;32.53;18.80;;;9.20;99.90;;;;;;4974338;28;20041;-55